Terminal Aerodrome Forecast
Issued by NWS

Home | Current Version | Previous Version | Text Only | Print | Product List | Glossary Off
Versions: 1 2 3 4 5 6 7 8 9 10 11 12 13 14 15 16 17 18 19

000
FTUS43 KPAH 220500
TAFCGI
TAF
KCGI 220520Z 2206/2306 19006KT P6SM SCT250
     FM220900 VRB02KT 3SM BR SKC
      TEMPO 2209/2212 1/2SM FG
     FM221500 23007KT P6SM FEW050
     FM230100 19004KT P6SM SKC=

USA.gov is the U.S. government's official web portal to all federal, state and local government web resources and services.